sensor_id;sensor_type;location;lat;lon;timestamp;pressure;altitude;pressure_sealevel;temperature
82780;BMP280;72511;45.120;20.720;2023-09-07T00:09:49;100862.72;;;18.84
82780;BMP280;72511;45.120;20.720;2023-09-07T00:19:50;100862.53;;;18.73
82780;BMP280;72511;45.120;20.720;2023-09-07T00:29:50;100860.34;;;18.77
82780;BMP280;72511;45.120;20.720;2023-09-07T00:39:51;100843.97;;;18.68
82780;BMP280;72511;45.120;20.720;2023-09-07T00:49:52;100849.56;;;18.74
82780;BMP280;72511;45.120;20.720;2023-09-07T00:59:52;100842.44;;;18.67
82780;BMP280;72511;45.120;20.720;2023-09-07T01:09:56;100835.13;;;18.64
82780;BMP280;72511;45.120;20.720;2023-09-07T01:19:59;100843.69;;;18.57
82780;BMP280;72511;45.120;20.720;2023-09-07T01:30:04;100840.50;;;18.59
82780;BMP280;72511;45.120;20.720;2023-09-07T01:40:05;100830.03;;;18.48
82780;BMP280;72511;45.120;20.720;2023-09-07T01:50:06;100851.38;;;18.44
82780;BMP280;72511;45.120;20.720;2023-09-07T02:00:07;100843.91;;;18.45
82780;BMP280;72511;45.120;20.720;2023-09-07T02:10:13;100847.59;;;18.42
82780;BMP280;72511;45.120;20.720;2023-09-07T02:20:14;100843.84;;;18.31
82780;BMP280;72511;45.120;20.720;2023-09-07T02:30:14;100855.53;;;18.31
82780;BMP280;72511;45.120;20.720;2023-09-07T02:40:15;100864.41;;;18.17
82780;BMP280;72511;45.120;20.720;2023-09-07T02:50:16;100871.03;;;17.93
82780;BMP280;72511;45.120;20.720;2023-09-07T03:00:17;100859.97;;;17.78
82780;BMP280;72511;45.120;20.720;2023-09-07T03:10:18;100887.94;;;17.91
82780;BMP280;72511;45.120;20.720;2023-09-07T03:20:19;100889.31;;;17.87
82780;BMP280;72511;45.120;20.720;2023-09-07T03:30:24;100905.41;;;17.85
82780;BMP280;72511;45.120;20.720;2023-09-07T03:40:25;100905.13;;;17.83
82780;BMP280;72511;45.120;20.720;2023-09-07T03:50:26;100910.59;;;17.83
82780;BMP280;72511;45.120;20.720;2023-09-07T04:00:26;100911.22;;;17.78
82780;BMP280;72511;45.120;20.720;2023-09-07T04:10:27;100935.09;;;17.77
82780;BMP280;72511;45.120;20.720;2023-09-07T04:20:28;100927.94;;;17.80
82780;BMP280;72511;45.120;20.720;2023-09-07T04:30:30;100948.63;;;17.90
82780;BMP280;72511;45.120;20.720;2023-09-07T04:40:31;100943.75;;;17.94
82780;BMP280;72511;45.120;20.720;2023-09-07T04:50:31;100951.56;;;19.72
82780;BMP280;72511;45.120;20.720;2023-09-07T05:00:32;100964.03;;;22.05
82780;BMP280;72511;45.120;20.720;2023-09-07T05:10:33;100941.94;;;20.05
82780;BMP280;72511;45.120;20.720;2023-09-07T05:20:34;100967.09;;;19.75
82780;BMP280;72511;45.120;20.720;2023-09-07T05:30:34;100986.44;;;20.09
82780;BMP280;72511;45.120;20.720;2023-09-07T05:40:41;100982.25;;;22.28
82780;BMP280;72511;45.120;20.720;2023-09-07T05:50:42;100985.69;;;25.55
82780;BMP280;72511;45.120;20.720;2023-09-07T06:00:43;100971.44;;;26.77
82780;BMP280;72511;45.120;20.720;2023-09-07T06:10:43;100982.69;;;27.84
82780;BMP280;72511;45.120;20.720;2023-09-07T06:20:44;100992.84;;;28.51
82780;BMP280;72511;45.120;20.720;2023-09-07T06:30:45;100991.16;;;28.95
82780;BMP280;72511;45.120;20.720;2023-09-07T06:40:49;100996.38;;;29.52
82780;BMP280;72511;45.120;20.720;2023-09-07T06:50:50;100996.03;;;29.76
82780;BMP280;72511;45.120;20.720;2023-09-07T07:00:51;100986.41;;;29.84
82780;BMP280;72511;45.120;20.720;2023-09-07T07:10:51;101011.63;;;30.27
82780;BMP280;72511;45.120;20.720;2023-09-07T07:20:52;101003.81;;;30.33
82780;BMP280;72511;45.120;20.720;2023-09-07T07:30:53;101005.59;;;30.94
82780;BMP280;72511;45.120;20.720;2023-09-07T07:40:54;101006.53;;;31.04
82780;BMP280;72511;45.120;20.720;2023-09-07T07:50:54;101001.19;;;31.28
82780;BMP280;72511;45.120;20.720;2023-09-07T08:00:55;100997.47;;;31.63
82780;BMP280;72511;45.120;20.720;2023-09-07T08:11:00;100997.59;;;32.17
82780;BMP280;72511;45.120;20.720;2023-09-07T08:21:01;100994.47;;;33.09
82780;BMP280;72511;45.120;20.720;2023-09-07T08:31:01;100999.81;;;32.90
82780;BMP280;72511;45.120;20.720;2023-09-07T08:41:02;100998.13;;;33.19
82780;BMP280;72511;45.120;20.720;2023-09-07T08:51:03;100990.75;;;33.31
82780;BMP280;72511;45.120;20.720;2023-09-07T09:01:03;100980.03;;;32.49
82780;BMP280;72511;45.120;20.720;2023-09-07T09:11:04;100982.19;;;31.49
82780;BMP280;72511;45.120;20.720;2023-09-07T09:21:04;100974.53;;;31.35
82780;BMP280;72511;45.120;20.720;2023-09-07T09:31:05;100961.88;;;30.61
82780;BMP280;72511;45.120;20.720;2023-09-07T09:41:06;100965.34;;;30.82
82780;BMP280;72511;45.120;20.720;2023-09-07T09:51:07;100957.44;;;30.66
82780;BMP280;72511;45.120;20.720;2023-09-07T10:01:09;100954.75;;;30.38
82780;BMP280;72511;45.120;20.720;2023-09-07T10:11:10;100950.28;;;30.42
82780;BMP280;72511;45.120;20.720;2023-09-07T10:21:11;100944.25;;;30.81
82780;BMP280;72511;45.120;20.720;2023-09-07T10:31:19;100944.31;;;31.03
82780;BMP280;72511;45.120;20.720;2023-09-07T10:41:24;100933.66;;;31.39
82780;BMP280;72511;45.120;20.720;2023-09-07T10:51:25;100934.25;;;31.53
82780;BMP280;72511;45.120;20.720;2023-09-07T11:01:25;100927.69;;;31.73
82780;BMP280;72511;45.120;20.720;2023-09-07T11:11:26;100912.13;;;31.94
82780;BMP280;72511;45.120;20.720;2023-09-07T11:21:27;100920.41;;;32.24
82780;BMP280;72511;45.120;20.720;2023-09-07T11:31:28;100905.41;;;32.36
82780;BMP280;72511;45.120;20.720;2023-09-07T11:41:28;100906.13;;;32.05
82780;BMP280;72511;45.120;20.720;2023-09-07T11:51:29;100894.53;;;31.54
82780;BMP280;72511;45.120;20.720;2023-09-07T12:01:29;100891.34;;;32.44
82780;BMP280;72511;45.120;20.720;2023-09-07T12:11:30;100878.41;;;32.80
82780;BMP280;72511;45.120;20.720;2023-09-07T12:21:30;100863.06;;;32.57
82780;BMP280;72511;45.120;20.720;2023-09-07T12:31:31;100858.44;;;31.88
82780;BMP280;72511;45.120;20.720;2023-09-07T12:41:31;100845.53;;;31.01
82780;BMP280;72511;45.120;20.720;2023-09-07T12:51:32;100839.91;;;31.31
82780;BMP280;72511;45.120;20.720;2023-09-07T13:01:32;100841.75;;;30.46
82780;BMP280;72511;45.120;20.720;2023-09-07T13:11:33;100828.38;;;31.04
82780;BMP280;72511;45.120;20.720;2023-09-07T13:21:33;100823.75;;;31.84
82780;BMP280;72511;45.120;20.720;2023-09-07T13:31:34;100818.97;;;31.62
82780;BMP280;72511;45.120;20.720;2023-09-07T13:41:34;100818.84;;;31.07
82780;BMP280;72511;45.120;20.720;2023-09-07T13:51:35;100813.09;;;31.13
82780;BMP280;72511;45.120;20.720;2023-09-07T14:01:36;100813.31;;;30.92
82780;BMP280;72511;45.120;20.720;2023-09-07T14:11:37;100815.91;;;30.03
82780;BMP280;72511;45.120;20.720;2023-09-07T14:21:37;100809.63;;;29.67
82780;BMP280;72511;45.120;20.720;2023-09-07T14:31:38;100806.47;;;30.13
82780;BMP280;72511;45.120;20.720;2023-09-07T14:41:38;100786.00;;;30.33
82780;BMP280;72511;45.120;20.720;2023-09-07T14:51:39;100782.47;;;29.75
82780;BMP280;72511;45.120;20.720;2023-09-07T15:01:39;100799.03;;;29.66
82780;BMP280;72511;45.120;20.720;2023-09-07T15:11:40;100794.31;;;29.33
82780;BMP280;72511;45.120;20.720;2023-09-07T15:21:41;100800.25;;;29.29
82780;BMP280;72511;45.120;20.720;2023-09-07T15:31:41;100792.88;;;29.11
82780;BMP280;72511;45.120;20.720;2023-09-07T15:41:42;100798.28;;;28.89
82780;BMP280;72511;45.120;20.720;2023-09-07T15:51:42;100789.69;;;28.66
82780;BMP280;72511;45.120;20.720;2023-09-07T16:01:43;100802.44;;;28.41
82780;BMP280;72511;45.120;20.720;2023-09-07T16:11:43;100803.03;;;28.14
82780;BMP280;72511;45.120;20.720;2023-09-07T16:21:44;100805.34;;;27.77
82780;BMP280;72511;45.120;20.720;2023-09-07T16:31:45;100788.72;;;27.32
82780;BMP280;72511;45.120;20.720;2023-09-07T16:41:45;100808.00;;;26.99
82780;BMP280;72511;45.120;20.720;2023-09-07T16:51:46;100808.69;;;26.55
82780;BMP280;72511;45.120;20.720;2023-09-07T17:01:46;100799.66;;;26.12
82780;BMP280;72511;45.120;20.720;2023-09-07T17:11:47;100802.16;;;25.68
82780;BMP280;72511;45.120;20.720;2023-09-07T17:21:47;100810.50;;;25.38
82780;BMP280;72511;45.120;20.720;2023-09-07T17:31:48;100828.56;;;25.16
82780;BMP280;72511;45.120;20.720;2023-09-07T17:41:48;100834.81;;;24.87
82780;BMP280;72511;45.120;20.720;2023-09-07T17:51:49;100826.31;;;24.79
82780;BMP280;72511;45.120;20.720;2023-09-07T18:01:49;100852.72;;;24.80
82780;BMP280;72511;45.120;20.720;2023-09-07T18:11:50;100847.84;;;24.57
82780;BMP280;72511;45.120;20.720;2023-09-07T18:21:50;100851.19;;;24.33
82780;BMP280;72511;45.120;20.720;2023-09-07T18:31:51;100871.66;;;24.03
82780;BMP280;72511;45.120;20.720;2023-09-07T18:41:52;100864.88;;;23.76
82780;BMP280;72511;45.120;20.720;2023-09-07T18:51:53;100867.13;;;23.56
82780;BMP280;72511;45.120;20.720;2023-09-07T19:01:53;100856.84;;;23.46
82780;BMP280;72511;45.120;20.720;2023-09-07T19:11:54;100856.31;;;23.20
82780;BMP280;72511;45.120;20.720;2023-09-07T19:21:54;100870.00;;;22.81
82780;BMP280;72511;45.120;20.720;2023-09-07T19:31:55;100875.53;;;22.81
82780;BMP280;72511;45.120;20.720;2023-09-07T19:41:57;100875.00;;;22.77
82780;BMP280;72511;45.120;20.720;2023-09-07T19:51:57;100864.53;;;22.45
82780;BMP280;72511;45.120;20.720;2023-09-07T20:01:59;100872.78;;;22.34
82780;BMP280;72511;45.120;20.720;2023-09-07T20:12:00;100866.19;;;22.26
82780;BMP280;72511;45.120;20.720;2023-09-07T20:22:01;100852.41;;;21.84
82780;BMP280;72511;45.120;20.720;2023-09-07T20:32:02;100858.38;;;21.82
82780;BMP280;72511;45.120;20.720;2023-09-07T20:42:02;100848.28;;;21.43
82780;BMP280;72511;45.120;20.720;2023-09-07T20:52:03;100864.88;;;21.54
82780;BMP280;72511;45.120;20.720;2023-09-07T21:02:04;100846.88;;;21.28
82780;BMP280;72511;45.120;20.720;2023-09-07T21:12:07;100845.19;;;21.35
82780;BMP280;72511;45.120;20.720;2023-09-07T21:22:10;100851.44;;;21.36
82780;BMP280;72511;45.120;20.720;2023-09-07T21:32:11;100838.22;;;21.15
82780;BMP280;72511;45.120;20.720;2023-09-07T21:42:11;100850.84;;;21.01
82780;BMP280;72511;45.120;20.720;2023-09-07T21:52:13;100833.22;;;20.93
82780;BMP280;72511;45.120;20.720;2023-09-07T22:02:13;100836.47;;;20.72
82780;BMP280;72511;45.120;20.720;2023-09-07T22:12:14;100822.91;;;20.68
82780;BMP280;72511;45.120;20.720;2023-09-07T22:22:15;100823.03;;;20.39
82780;BMP280;72511;45.120;20.720;2023-09-07T22:32:15;100844.19;;;20.33
82780;BMP280;72511;45.120;20.720;2023-09-07T22:42:16;100833.44;;;20.01
82780;BMP280;72511;45.120;20.720;2023-09-07T22:52:16;100843.22;;;20.02
82780;BMP280;72511;45.120;20.720;2023-09-07T23:02:17;100842.00;;;19.88
82780;BMP280;72511;45.120;20.720;2023-09-07T23:12:17;100840.75;;;19.46
82780;BMP280;72511;45.120;20.720;2023-09-07T23:22:18;100826.38;;;18.98
82780;BMP280;72511;45.120;20.720;2023-09-07T23:32:19;100845.69;;;19.04
82780;BMP280;72511;45.120;20.720;2023-09-07T23:42:19;100822.88;;;18.74
82780;BMP280;72511;45.120;20.720;2023-09-07T23:52:20;100837.84;;;18.73
